createdAt,value
2023-01-25T00:01:43.730Z,18.92
2023-01-25T00:04:10.456Z,18.15
2023-01-25T00:06:37.144Z,17.55
2023-01-25T00:09:04.824Z,17.30
2023-01-25T00:11:31.785Z,17.92
2023-01-25T00:13:58.537Z,18.15
2023-01-25T00:16:25.478Z,17.50
2023-01-25T00:18:52.311Z,16.48
2023-01-25T00:21:21.595Z,16.40
2023-01-25T00:23:48.754Z,16.45
2023-01-25T00:26:16.043Z,15.95
2023-01-25T00:28:42.991Z,15.07
2023-01-25T00:31:17.297Z,14.70
2023-01-25T00:33:56.783Z,15.68
2023-01-25T00:37:13.354Z,16.88
2023-01-25T00:39:40.251Z,15.40
2023-01-25T00:42:15.477Z,15.52
2023-01-25T00:44:42.346Z,16.08
2023-01-25T00:47:13.022Z,15.55
2023-01-25T00:49:41.229Z,14.80
2023-01-25T00:52:08.827Z,14.13
2023-01-25T00:54:35.705Z,15.25
2023-01-25T00:57:02.573Z,14.48
2023-01-25T00:59:29.257Z,14.25
2023-01-25T01:01:56.325Z,14.57
2023-01-25T01:04:25.079Z,13.48
2023-01-25T01:06:56.408Z,14.13
2023-01-25T01:09:24.083Z,13.73
2023-01-25T01:11:51.052Z,13.32
2023-01-25T01:14:17.864Z,15.00
2023-01-25T01:16:44.657Z,14.95
2023-01-25T01:19:11.501Z,15.35
2023-01-25T01:21:38.467Z,13.85
2023-01-25T01:24:05.813Z,14.15
2023-01-25T01:26:32.599Z,14.32
2023-01-25T01:28:59.715Z,14.63
2023-01-25T01:31:26.784Z,14.13
2023-01-25T01:33:55.548Z,14.35
2023-01-25T01:36:24.455Z,14.35
2023-01-25T01:38:51.155Z,14.50
2023-01-25T01:41:18.835Z,14.13
2023-01-25T01:43:45.739Z,15.65
2023-01-25T01:46:18.027Z,15.82
2023-01-25T01:48:53.995Z,15.90
2023-01-25T01:51:43.311Z,15.75
2023-01-25T01:54:13.172Z,15.73
2023-01-25T01:56:52.391Z,14.73
2023-01-25T01:59:20.855Z,14.63
2023-01-25T02:01:47.690Z,14.43
2023-01-25T02:04:16.075Z,14.13
2023-01-25T02:07:16.767Z,14.02
2023-01-25T02:09:44.790Z,14.18
2023-01-25T02:12:13.120Z,13.57
2023-01-25T02:14:47.063Z,13.23
2023-01-25T02:17:13.888Z,14.05
2023-01-25T02:20:06.112Z,13.68
2023-01-25T02:22:44.624Z,13.90
2023-01-25T02:25:13.592Z,13.77
2023-01-25T02:28:01.106Z,13.50
2023-01-25T02:30:28.452Z,13.95
2023-01-25T02:32:55.605Z,14.48
2023-01-25T02:35:43.917Z,15.75
2023-01-25T02:38:14.316Z,14.02
2023-01-25T02:41:03.493Z,15.13
2023-01-25T02:43:32.601Z,13.25
2023-01-25T02:46:10.937Z,14.52
2023-01-25T02:48:37.873Z,14.57
2023-01-25T02:51:08.252Z,13.85
2023-01-25T02:53:35.432Z,13.80
2023-01-25T02:56:02.619Z,14.27
2023-01-25T02:58:29.323Z,14.13
2023-01-25T03:00:57.759Z,13.98
2023-01-25T03:03:24.569Z,15.18
2023-01-25T03:05:51.406Z,15.60
2023-01-25T03:08:18.152Z,14.43
2023-01-25T03:10:44.906Z,15.25
2023-01-25T03:13:11.643Z,16.83
2023-01-25T03:15:38.448Z,16.10
2023-01-25T03:18:05.223Z,16.05
2023-01-25T03:20:31.975Z,15.68
2023-01-25T03:22:58.689Z,13.85
2023-01-25T03:25:25.405Z,14.68
2023-01-25T03:27:52.159Z,13.90
2023-01-25T03:30:18.976Z,15.70
2023-01-25T03:32:45.649Z,14.77
2023-01-25T03:35:12.312Z,14.55
2023-01-25T03:37:39.120Z,15.25
2023-01-25T03:40:06.621Z,15.77
2023-01-25T03:42:33.513Z,15.48
2023-01-25T03:45:00.181Z,15.38
2023-01-25T03:47:26.868Z,15.73
2023-01-25T03:49:53.682Z,15.05
2023-01-25T03:52:20.484Z,15.45
2023-01-25T03:54:47.259Z,15.90
2023-01-25T03:57:13.935Z,14.02
2023-01-25T03:59:40.644Z,14.57
2023-01-25T04:02:07.475Z,14.63
2023-01-25T04:04:34.472Z,14.77
2023-01-25T04:07:01.243Z,13.45
2023-01-25T04:09:27.918Z,12.90
2023-01-25T04:11:54.606Z,12.88
2023-01-25T04:14:34.989Z,14.13
2023-01-25T04:17:08.223Z,15.70
2023-01-25T04:19:35.006Z,16.23
2023-01-25T04:22:01.780Z,14.73
2023-01-25T04:24:28.582Z,14.77
2023-01-25T04:26:55.331Z,15.13
2023-01-25T04:29:31.672Z,14.20
2023-01-25T04:32:06.384Z,13.60
2023-01-25T04:34:33.152Z,15.10
2023-01-25T04:36:59.863Z,13.77
2023-01-25T04:39:26.587Z,14.82
2023-01-25T04:41:53.291Z,13.52
2023-01-25T04:44:20.026Z,13.80
2023-01-25T04:46:46.792Z,13.35
2023-01-25T04:49:13.572Z,13.90
2023-01-25T04:51:40.371Z,14.65
2023-01-25T04:54:07.075Z,14.55
2023-01-25T04:56:35.441Z,14.27
2023-01-25T04:59:02.230Z,13.20
2023-01-25T05:01:29.028Z,13.25
2023-01-25T05:03:55.853Z,13.88
2023-01-25T05:06:22.660Z,13.95
2023-01-25T05:08:49.421Z,13.32
2023-01-25T05:11:16.141Z,14.18
2023-01-25T05:13:42.819Z,13.52
2023-01-25T05:16:09.898Z,13.85
2023-01-25T05:18:48.056Z,13.85
2023-01-25T05:21:34.793Z,15.43
2023-01-25T05:24:01.680Z,13.15
2023-01-25T05:26:47.319Z,14.63
2023-01-25T05:29:14.083Z,13.40
2023-01-25T05:31:40.857Z,13.77
2023-01-25T05:34:09.420Z,13.70
2023-01-25T05:36:36.162Z,14.35
2023-01-25T05:39:06.588Z,13.75
2023-01-25T05:41:33.271Z,12.90
2023-01-25T05:44:00.391Z,14.45
2023-01-25T05:46:28.084Z,14.32
2023-01-25T05:48:54.850Z,13.57
2023-01-25T05:51:21.643Z,13.55
2023-01-25T05:53:48.415Z,14.45
2023-01-25T05:56:15.240Z,13.65
2023-01-25T05:58:41.951Z,14.77
2023-01-25T06:01:08.727Z,13.98
2023-01-25T06:03:35.461Z,14.88
2023-01-25T06:06:03.045Z,13.98
2023-01-25T06:08:31.077Z,15.13
2023-01-25T06:10:58.390Z,13.82
2023-01-25T06:13:25.471Z,15.75
2023-01-25T06:15:53.646Z,13.98
2023-01-25T06:18:20.787Z,15.80
2023-01-25T06:20:47.736Z,14.95
2023-01-25T06:23:14.587Z,13.00
2023-01-25T06:25:41.263Z,14.57
2023-01-25T06:28:08.033Z,15.02
2023-01-25T06:30:34.950Z,14.57
2023-01-25T06:33:02.041Z,15.20
2023-01-25T06:35:29.166Z,15.63
2023-01-25T06:37:57.132Z,15.60
2023-01-25T06:40:24.274Z,16.77
2023-01-25T06:42:51.043Z,17.17
2023-01-25T06:45:17.986Z,16.73
2023-01-25T06:47:46.664Z,17.67
2023-01-25T06:50:13.408Z,16.10
2023-01-25T06:52:40.171Z,17.23
2023-01-25T06:55:10.363Z,18.70
2023-01-25T06:57:37.251Z,17.65
2023-01-25T07:00:04.361Z,17.20
2023-01-25T07:02:31.136Z,16.23
2023-01-25T07:04:57.829Z,16.30
2023-01-25T07:07:24.601Z,16.58
2023-01-25T07:09:51.267Z,16.33
2023-01-25T07:12:19.554Z,16.77
2023-01-25T07:14:48.544Z,17.98
2023-01-25T07:17:15.647Z,17.92
2023-01-25T07:19:42.523Z,17.45
2023-01-25T07:22:09.245Z,18.20
2023-01-25T07:24:35.950Z,16.92
2023-01-25T07:27:02.793Z,19.67
2023-01-25T07:29:30.225Z,18.67
2023-01-25T07:31:57.089Z,18.50
2023-01-25T07:34:23.894Z,19.60
2023-01-25T07:36:50.648Z,18.58
2023-01-25T07:39:17.456Z,18.55
2023-01-25T07:41:44.157Z,19.30
2023-01-25T07:44:10.842Z,20.45
2023-01-25T07:46:37.636Z,20.25
2023-01-25T07:49:04.413Z,19.65
2023-01-25T07:51:31.241Z,20.60
2023-01-25T07:54:00.492Z,20.67
2023-01-25T07:56:30.075Z,20.85
2023-01-25T07:58:58.524Z,21.08
2023-01-25T08:01:27.630Z,20.35
2023-01-25T08:03:58.855Z,19.10
2023-01-25T08:06:30.701Z,20.65
2023-01-25T08:08:59.264Z,20.25
2023-01-25T08:11:29.021Z,19.63
2023-01-25T08:13:56.063Z,21.67
2023-01-25T08:16:25.916Z,20.50
2023-01-25T08:18:57.969Z,22.30
2023-01-25T08:21:29.114Z,22.67
2023-01-25T08:24:00.950Z,22.08
2023-01-25T08:26:29.137Z,20.40
2023-01-25T08:28:56.468Z,22.23
2023-01-25T08:31:26.565Z,22.00
2023-01-25T08:33:54.930Z,22.42
2023-01-25T08:36:24.290Z,22.95
2023-01-25T08:38:58.501Z,22.25
2023-01-25T08:41:26.480Z,22.05
2023-01-25T08:43:55.253Z,25.90
2023-01-25T08:46:23.687Z,24.30
2023-01-25T08:48:55.235Z,23.45
2023-01-25T08:51:22.330Z,23.35
2023-01-25T08:53:49.042Z,24.35
2023-01-25T08:56:17.316Z,23.58
2023-01-25T08:58:46.346Z,24.27
2023-01-25T09:01:15.723Z,22.75
2023-01-25T09:03:44.744Z,25.25
2023-01-25T09:06:12.622Z,23.92
2023-01-25T09:08:39.651Z,24.08
2023-01-25T09:11:09.516Z,26.33
2023-01-25T09:13:36.756Z,25.77
2023-01-25T09:16:10.027Z,25.42
2023-01-25T09:18:38.499Z,27.00
2023-01-25T09:21:10.034Z,26.48
2023-01-25T09:23:50.324Z,25.40
2023-01-25T09:26:24.447Z,24.52
2023-01-25T09:28:52.986Z,25.23
2023-01-25T09:31:24.232Z,26.52
2023-01-25T09:33:52.714Z,25.92
2023-01-25T09:36:20.423Z,25.77
2023-01-25T09:38:47.245Z,26.17
2023-01-25T09:41:51.837Z,26.52
2023-01-25T09:44:30.723Z,23.80
2023-01-25T09:47:01.697Z,25.80
2023-01-25T09:49:36.276Z,26.73
2023-01-25T09:52:17.928Z,25.52
2023-01-25T09:54:47.447Z,26.95
2023-01-25T09:57:21.813Z,28.48
2023-01-25T09:59:51.582Z,27.35
2023-01-25T10:02:30.512Z,26.80
2023-01-25T10:05:06.597Z,27.27
2023-01-25T10:10:46.095Z,27.80
2023-01-25T10:13:15.916Z,26.73
2023-01-25T10:16:20.923Z,27.38
2023-01-25T10:19:10.992Z,26.65
2023-01-25T10:21:45.176Z,25.25
2023-01-25T10:24:42.119Z,23.63
2023-01-25T10:29:48.605Z,23.25
2023-01-25T10:32:28.601Z,24.55
2023-01-25T10:34:58.240Z,25.52
2023-01-25T10:37:28.993Z,25.85
2023-01-25T10:40:07.225Z,24.48
2023-01-25T10:42:41.370Z,25.30
2023-01-25T10:45:16.201Z,30.40
2023-01-25T10:47:53.076Z,26.58
2023-01-25T10:50:38.694Z,28.83
2023-01-25T10:53:05.457Z,27.75
2023-01-25T10:55:35.549Z,29.60
2023-01-25T10:58:02.265Z,32.78
2023-01-25T11:00:36.267Z,33.15
2023-01-25T11:03:03.392Z,33.08
2023-01-25T11:05:41.813Z,34.10
2023-01-25T11:08:32.493Z,31.05
2023-01-25T11:11:00.203Z,30.27
2023-01-25T11:13:29.474Z,30.88
2023-01-25T11:16:18.305Z,30.25
2023-01-25T11:18:56.041Z,30.67
2023-01-25T11:21:52.909Z,29.92
2023-01-25T11:26:46.721Z,31.92
2023-01-25T11:29:21.977Z,33.30
2023-01-25T11:31:57.694Z,32.33
2023-01-25T11:34:29.357Z,32.55
2023-01-25T11:37:17.249Z,34.90
2023-01-25T11:40:17.424Z,32.70
2023-01-25T11:43:21.372Z,32.88
2023-01-25T11:45:50.764Z,34.78
2023-01-25T11:49:00.179Z,35.58
2023-01-25T11:51:38.786Z,35.22
2023-01-25T11:54:36.028Z,34.00
2023-01-25T11:57:12.648Z,30.73
2023-01-25T11:59:50.118Z,31.40
2023-01-25T12:02:25.770Z,30.83
2023-01-25T12:05:21.448Z,30.05
2023-01-25T12:08:04.707Z,30.90
2023-01-25T12:11:03.532Z,30.45
2023-01-25T12:13:55.695Z,30.80
2023-01-25T12:16:42.063Z,31.95
2023-01-25T12:19:26.548Z,33.45
2023-01-25T12:22:11.265Z,33.78
2023-01-25T12:25:10.878Z,30.73
2023-01-25T12:28:10.946Z,30.58
2023-01-25T12:30:48.474Z,27.02
2023-01-25T12:33:18.324Z,27.52
2023-01-25T12:36:08.317Z,32.17
2023-01-25T12:38:57.406Z,29.70
2023-01-25T12:41:57.376Z,29.23
2023-01-25T12:44:30.215Z,27.10
2023-01-25T12:46:59.741Z,28.25
2023-01-25T12:49:36.001Z,29.17
2023-01-25T12:52:15.739Z,25.25
2023-01-25T12:54:45.583Z,27.05
2023-01-25T12:57:29.779Z,27.02
2023-01-25T13:00:23.724Z,25.90
2023-01-25T13:03:19.073Z,27.15
2023-01-25T13:06:15.128Z,27.42
2023-01-25T13:09:10.220Z,26.93
2023-01-25T13:11:40.702Z,28.23
2023-01-25T13:14:16.601Z,27.48
2023-01-25T13:17:08.492Z,28.13
2023-01-25T13:19:36.468Z,28.55
2023-01-25T13:22:03.914Z,28.13
2023-01-25T13:24:33.715Z,28.02
2023-01-25T13:27:23.733Z,28.95
2023-01-25T13:30:28.076Z,34.03
2023-01-25T13:32:58.437Z,29.20
2023-01-25T13:35:27.688Z,27.27
2023-01-25T13:38:04.554Z,26.77
2023-01-25T13:40:37.344Z,25.90
2023-01-25T13:43:30.515Z,27.48
2023-01-25T13:45:57.715Z,29.10
2023-01-25T13:48:28.679Z,29.77
2023-01-25T13:50:59.281Z,27.35
2023-01-25T13:53:29.607Z,27.13
2023-01-25T13:55:58.357Z,30.63
2023-01-25T13:58:36.368Z,31.45
2023-01-25T14:01:18.729Z,30.42
2023-01-25T14:04:04.258Z,27.17
2023-01-25T14:06:36.121Z,30.15
2023-01-25T14:09:16.654Z,27.38
2023-01-25T14:11:56.542Z,27.33
2023-01-25T14:14:28.924Z,27.30
2023-01-25T14:17:22.126Z,27.67
2023-01-25T14:19:53.180Z,26.85
2023-01-25T14:22:31.990Z,26.10
2023-01-25T14:25:07.298Z,30.27
2023-01-25T14:27:54.232Z,26.48
2023-01-25T14:30:24.601Z,27.13
2023-01-25T14:32:56.156Z,26.63
2023-01-25T14:35:54.782Z,26.48
2023-01-25T14:38:34.136Z,27.48
2023-01-25T14:41:21.477Z,27.27
2023-01-25T14:43:57.896Z,27.20
2023-01-25T14:46:27.748Z,28.52
2023-01-25T14:49:15.733Z,28.10
2023-01-25T14:51:54.772Z,27.65
2023-01-25T14:54:27.919Z,30.55
2023-01-25T14:57:00.804Z,29.67
2023-01-25T14:59:37.840Z,28.85
2023-01-25T15:02:42.225Z,28.17
2023-01-25T15:05:27.373Z,29.88
2023-01-25T15:07:57.045Z,31.30
2023-01-25T15:10:30.767Z,31.20
2023-01-25T15:13:14.624Z,30.02
2023-01-25T15:16:00.121Z,28.90
2023-01-25T15:18:42.612Z,29.73
2023-01-25T15:21:32.314Z,30.65
2023-01-25T15:24:06.959Z,30.00
2023-01-25T15:26:35.645Z,29.80
2023-01-25T15:29:12.194Z,30.85
2023-01-25T15:31:38.979Z,31.02
2023-01-25T15:34:06.201Z,29.95
2023-01-25T15:36:33.439Z,29.42
2023-01-25T15:39:00.276Z,31.52
2023-01-25T15:41:27.154Z,30.98
2023-01-25T15:43:53.918Z,34.65
2023-01-25T15:46:30.459Z,30.08
2023-01-25T15:48:57.409Z,30.15
2023-01-25T15:51:24.182Z,30.80
2023-01-25T15:53:51.004Z,30.20
2023-01-25T15:56:24.252Z,32.22
2023-01-25T15:58:53.355Z,33.95
2023-01-25T16:01:27.078Z,32.15
2023-01-25T16:03:55.611Z,32.83
2023-01-25T16:06:45.127Z,34.70
2023-01-25T16:09:20.933Z,33.45
2023-01-25T16:11:51.332Z,34.30
2023-01-25T16:14:19.246Z,34.63
2023-01-25T16:16:49.541Z,33.88
2023-01-25T16:19:21.369Z,33.40
2023-01-25T16:21:49.231Z,32.60
2023-01-25T16:24:16.792Z,30.70
2023-01-25T16:26:54.601Z,31.33
2023-01-25T16:29:23.081Z,31.77
2023-01-25T16:31:50.660Z,32.97
2023-01-25T16:34:17.491Z,31.38
2023-01-25T16:36:50.227Z,30.65
2023-01-25T16:39:22.961Z,33.15
2023-01-25T16:41:50.057Z,30.83
2023-01-25T16:44:17.475Z,30.17
2023-01-25T16:46:44.993Z,30.88
2023-01-25T16:49:27.133Z,31.05
2023-01-25T16:51:54.604Z,28.60
2023-01-25T16:54:21.866Z,29.17
2023-01-25T16:56:49.387Z,28.20
2023-01-25T16:59:16.620Z,29.33
2023-01-25T17:01:44.044Z,29.65
2023-01-25T17:04:11.281Z,29.88
2023-01-25T17:06:45.236Z,28.38
2023-01-25T17:09:22.980Z,29.80
2023-01-25T17:11:51.548Z,29.58
2023-01-25T17:14:19.399Z,29.38
2023-01-25T17:16:48.264Z,28.38
2023-01-25T17:19:16.954Z,29.48
2023-01-25T17:21:44.679Z,30.13
2023-01-25T17:24:14.413Z,29.52
2023-01-25T17:27:38.437Z,28.77
2023-01-25T17:30:05.762Z,28.35
2023-01-25T17:32:32.756Z,29.20
2023-01-25T17:35:01.336Z,29.05
2023-01-25T17:37:28.170Z,28.45
2023-01-25T17:39:54.924Z,30.90
2023-01-25T17:42:22.177Z,29.20
2023-01-25T17:44:48.944Z,28.45
2023-01-25T17:47:15.670Z,30.38
2023-01-25T17:49:42.591Z,31.65
2023-01-25T17:52:09.363Z,32.42
2023-01-25T17:54:36.345Z,32.47
2023-01-25T17:57:03.156Z,34.17
2023-01-25T17:59:29.858Z,31.27
2023-01-25T18:01:56.791Z,32.38
2023-01-25T18:04:25.360Z,33.17
2023-01-25T18:06:52.281Z,31.50
2023-01-25T18:09:19.261Z,31.55
2023-01-25T18:11:46.048Z,32.88
2023-01-25T18:14:16.696Z,31.45
2023-01-25T18:16:44.729Z,30.25
2023-01-25T18:19:11.722Z,29.83
2023-01-25T18:21:39.026Z,31.10
2023-01-25T18:24:23.097Z,33.13
2023-01-25T18:26:51.148Z,31.70
2023-01-25T18:29:17.848Z,30.52
2023-01-25T18:31:45.559Z,30.98
2023-01-25T18:34:12.509Z,32.55
2023-01-25T18:36:39.315Z,32.97
2023-01-25T18:39:08.077Z,29.30
2023-01-25T18:41:34.749Z,28.98
2023-01-25T18:44:01.426Z,30.00
2023-01-25T18:46:28.357Z,28.67
2023-01-25T18:48:55.165Z,30.88
2023-01-25T18:55:21.412Z,28.75
2023-01-25T18:57:48.164Z,28.35
2023-01-25T19:00:17.073Z,29.83
2023-01-25T19:02:44.000Z,28.60
2023-01-25T19:05:11.143Z,28.20
2023-01-25T19:07:38.012Z,29.02
2023-01-25T19:10:05.082Z,29.08
2023-01-25T19:12:31.813Z,29.60
2023-01-25T19:14:59.610Z,29.33
2023-01-25T19:17:26.344Z,28.42
2023-01-25T19:19:53.013Z,28.63
2023-01-25T19:22:19.701Z,28.90
2023-01-25T19:24:46.430Z,30.25
2023-01-25T19:27:13.215Z,29.50
2023-01-25T19:29:39.984Z,28.33
2023-01-25T19:32:07.126Z,28.80
2023-01-25T19:34:33.877Z,30.38
2023-01-25T19:37:00.570Z,29.30
2023-01-25T19:39:27.432Z,31.00
2023-01-25T19:41:54.490Z,29.05
2023-01-25T19:44:21.347Z,31.15
2023-01-25T19:46:48.152Z,28.55
2023-01-25T19:49:15.144Z,29.25
2023-01-25T19:51:46.264Z,30.73
2023-01-25T19:54:17.466Z,31.15
2023-01-25T19:56:49.442Z,28.10
2023-01-25T19:59:18.890Z,30.40
2023-01-25T20:01:46.322Z,29.27
2023-01-25T20:04:15.676Z,28.55
2023-01-25T20:06:43.073Z,29.42
2023-01-25T20:09:14.259Z,28.65
2023-01-25T20:11:41.733Z,29.38
2023-01-25T20:14:10.505Z,28.50
2023-01-25T20:16:37.298Z,30.02
2023-01-25T20:19:04.598Z,29.52
2023-01-25T20:21:31.754Z,29.00
2023-01-25T20:24:02.638Z,28.92
2023-01-25T20:26:37.348Z,31.30
2023-01-25T20:29:04.418Z,30.35
2023-01-25T20:31:36.458Z,28.42
2023-01-25T20:34:10.057Z,28.75
2023-01-25T20:36:36.821Z,28.90
2023-01-25T20:39:05.625Z,28.77
2023-01-25T20:41:32.536Z,32.30
2023-01-25T20:44:02.019Z,27.80
2023-01-25T20:46:33.785Z,31.65
2023-01-25T20:49:01.843Z,33.72
2023-01-25T20:51:28.610Z,30.15
2023-01-25T20:53:56.144Z,30.35
2023-01-25T20:56:23.857Z,29.23
2023-01-25T20:58:51.216Z,29.90
2023-01-25T21:01:22.611Z,28.10
2023-01-25T21:03:50.243Z,27.90
2023-01-25T21:06:17.477Z,29.33
2023-01-25T21:08:44.478Z,29.52
2023-01-25T21:11:13.367Z,30.70
2023-01-25T21:13:40.247Z,28.40
2023-01-25T21:16:10.364Z,28.50
2023-01-25T21:18:46.359Z,30.83
2023-01-25T21:23:45.675Z,28.05
2023-01-25T21:26:24.555Z,32.03
2023-01-25T21:28:54.593Z,29.00
2023-01-25T21:31:33.136Z,28.75
2023-01-25T21:34:00.648Z,29.98
2023-01-25T21:36:27.613Z,30.50
2023-01-25T21:38:55.336Z,27.30
2023-01-25T21:41:29.503Z,28.75
2023-01-25T21:44:16.746Z,28.95
2023-01-25T21:46:49.264Z,28.23
2023-01-25T21:49:46.360Z,27.30
2023-01-25T21:52:13.086Z,24.73
2023-01-25T21:54:40.331Z,26.45
2023-01-25T21:57:08.991Z,26.83
2023-01-25T21:59:36.735Z,26.45
2023-01-25T22:02:05.701Z,25.35
2023-01-25T22:04:36.172Z,24.30
2023-01-25T22:07:03.861Z,24.35
2023-01-25T22:09:31.041Z,23.13
2023-01-25T22:11:58.042Z,23.85
2023-01-25T22:14:24.805Z,24.58
2023-01-25T22:16:52.213Z,24.58
2023-01-25T22:19:19.013Z,22.13
2023-01-25T22:21:46.110Z,24.73
2023-01-25T22:24:13.023Z,23.77
2023-01-25T22:26:53.327Z,23.90
2023-01-25T22:29:20.011Z,22.40
2023-01-25T22:31:46.840Z,23.60
2023-01-25T22:34:13.615Z,23.85
2023-01-25T22:36:40.388Z,24.08
2023-01-25T22:39:07.177Z,23.33
2023-01-25T22:41:38.942Z,22.13
2023-01-25T22:44:05.633Z,23.92
2023-01-25T22:46:32.663Z,23.55
2023-01-25T22:48:59.509Z,24.10
2023-01-25T22:51:28.891Z,23.60
2023-01-25T22:53:56.989Z,23.65
2023-01-25T22:56:30.038Z,24.05
2023-01-25T22:58:56.723Z,24.00
2023-01-25T23:01:26.177Z,25.55
2023-01-25T23:03:53.156Z,23.63
2023-01-25T23:06:22.773Z,22.88
2023-01-25T23:08:49.958Z,23.63
2023-01-25T23:11:21.843Z,24.98
2023-01-25T23:14:07.964Z,25.13
2023-01-25T23:16:35.754Z,23.75
2023-01-25T23:19:04.175Z,23.98
2023-01-25T23:21:31.696Z,22.83
2023-01-25T23:24:00.926Z,23.85
2023-01-25T23:26:29.211Z,23.10
2023-01-25T23:28:57.757Z,22.38
2023-01-25T23:31:26.176Z,23.77
2023-01-25T23:33:58.946Z,24.90
2023-01-25T23:36:28.215Z,24.15
2023-01-25T23:38:55.843Z,24.55
2023-01-25T23:41:26.201Z,24.00
2023-01-25T23:43:53.269Z,23.10
2023-01-25T23:46:20.034Z,22.70
2023-01-25T23:48:47.508Z,22.67
2023-01-25T23:51:16.039Z,20.52
2023-01-25T23:53:43.921Z,23.13
2023-01-25T23:56:20.057Z,20.05
2023-01-25T23:58:47.900Z,21.88
